createdAt,value
2019-04-01T00:01:28.516Z,69.32
2019-04-01T00:03:56.905Z,70.87
2019-04-01T00:06:25.295Z,68.43
2019-04-01T00:08:53.682Z,72.23
2019-04-01T00:11:22.068Z,71.37
2019-04-01T00:13:50.460Z,73.67
2019-04-01T00:16:18.848Z,71.90
2019-04-01T00:18:47.241Z,70.50
2019-04-01T00:21:15.645Z,77.90
2019-04-01T00:23:44.042Z,69.40
2019-04-01T00:26:12.434Z,73.73
2019-04-01T00:28:40.826Z,65.47
2019-04-01T00:31:09.221Z,72.03
2019-04-01T00:33:37.665Z,71.47
2019-04-01T00:36:06.067Z,73.30
2019-04-01T00:38:34.515Z,71.47
2019-04-01T00:41:03.002Z,72.20
2019-04-01T00:43:50.980Z,73.60
2019-04-01T00:46:19.462Z,72.60
2019-04-01T00:48:47.871Z,75.20
2019-04-01T00:51:16.271Z,75.87
2019-04-01T00:53:44.662Z,72.67
2019-04-01T00:56:13.063Z,70.60
2019-04-01T00:58:41.494Z,71.70
2019-04-01T01:01:09.991Z,75.17
2019-04-01T01:03:38.405Z,74.20
2019-04-01T01:06:06.801Z,72.37
2019-04-01T01:08:35.218Z,69.80
2019-04-01T01:11:04.556Z,79.37
2019-04-01T01:13:32.982Z,75.30
2019-04-01T01:16:01.371Z,71.10
2019-04-01T01:18:29.773Z,77.43
2019-04-01T01:20:58.185Z,68.67
2019-04-01T01:23:26.582Z,69.83
2019-04-01T01:25:55.013Z,72.37
2019-04-01T01:28:23.408Z,73.83
2019-04-01T01:30:51.805Z,74.87
2019-04-01T01:33:20.264Z,72.57
2019-04-01T01:35:48.663Z,74.53
2019-04-01T01:38:17.079Z,72.50
2019-04-01T01:40:45.516Z,72.53
2019-04-01T01:43:13.904Z,75.50
2019-04-01T01:45:42.298Z,73.13
2019-04-01T01:48:10.728Z,74.70
2019-04-01T01:50:39.136Z,69.33
2019-04-01T01:53:07.820Z,71.50
2019-04-01T01:55:36.460Z,75.37
2019-04-01T01:58:04.857Z,71.00
2019-04-01T02:00:34.086Z,66.80
2019-04-01T02:03:02.474Z,72.87
2019-04-01T02:05:30.899Z,74.10
2019-04-01T02:07:59.324Z,70.27
2019-04-01T02:10:27.745Z,70.43
2019-04-01T02:12:56.166Z,77.27
2019-04-01T02:15:25.495Z,75.77
2019-04-01T02:17:53.926Z,72.40
2019-04-01T02:20:22.337Z,75.90
2019-04-01T02:22:50.720Z,75.43
2019-04-01T02:25:19.129Z,76.00
2019-04-01T02:27:47.560Z,75.50
2019-04-01T02:30:16.026Z,72.73
2019-04-01T02:32:44.429Z,76.67
2019-04-01T02:35:12.889Z,72.67
2019-04-01T02:37:41.279Z,77.30
2019-04-01T02:40:09.781Z,74.93
2019-04-01T02:42:38.169Z,76.07
2019-04-01T02:45:07.111Z,72.97
2019-04-01T02:47:35.502Z,69.37
2019-04-01T02:50:04.713Z,74.70
2019-04-01T02:52:33.106Z,74.23
2019-04-01T02:55:06.386Z,72.97
2019-04-01T02:57:31.633Z,68.37
2019-04-01T03:00:00.086Z,72.70
2019-04-01T03:02:28.767Z,75.67
2019-04-01T03:04:57.151Z,67.80
2019-04-01T03:07:25.543Z,74.10
2019-04-01T03:09:53.987Z,71.10
2019-04-01T03:12:22.394Z,68.30
2019-04-01T03:14:50.784Z,69.57
2019-04-01T03:17:19.214Z,68.43
2019-04-01T03:19:47.623Z,67.83
2019-04-01T03:22:16.023Z,68.13
2019-04-01T03:24:44.416Z,69.27
2019-04-01T03:27:17.080Z,72.50
2019-04-01T03:29:42.976Z,68.80
2019-04-01T03:32:11.371Z,70.77
2019-04-01T03:34:39.761Z,75.77
2019-04-01T03:37:08.190Z,79.47
2019-04-01T03:39:36.598Z,77.10
2019-04-01T03:42:04.998Z,65.40
2019-04-01T03:44:33.388Z,66.03
2019-04-01T03:47:01.815Z,71.83
2019-04-01T03:49:30.226Z,69.67
2019-04-01T03:51:58.621Z,66.07
2019-04-01T03:54:27.160Z,62.67
2019-04-01T03:56:55.642Z,62.67
2019-04-01T03:59:24.147Z,63.40
2019-04-01T04:02:00.167Z,63.93
2019-04-01T04:04:28.632Z,63.37
2019-04-01T04:06:57.015Z,62.80
2019-04-01T04:09:25.699Z,55.07
2019-04-01T04:11:54.066Z,65.73
2019-04-01T04:14:22.470Z,61.37
2019-04-01T04:16:50.850Z,59.17
2019-04-01T04:19:19.244Z,61.73
2019-04-01T04:21:47.645Z,61.27
2019-04-01T04:24:16.037Z,61.30
2019-04-01T04:26:44.454Z,57.27
2019-04-01T04:29:12.825Z,56.10
2019-04-01T04:31:41.356Z,56.30
2019-04-01T04:34:09.691Z,57.17
2019-04-01T04:36:38.092Z,57.23
2019-04-01T04:39:06.850Z,51.10
2019-04-01T04:41:35.245Z,51.07
2019-04-01T04:44:03.800Z,48.70
2019-04-01T04:46:32.189Z,49.70
2019-04-01T04:49:00.576Z,54.77
2019-04-01T04:51:28.967Z,51.03
2019-04-01T04:53:57.351Z,54.50
2019-04-01T04:56:25.739Z,57.80
2019-04-01T04:58:54.135Z,48.60
2019-04-01T05:01:22.552Z,51.40
2019-04-01T05:03:50.944Z,52.10
2019-04-01T05:06:19.335Z,48.30
2019-04-01T05:08:47.723Z,50.10
2019-04-01T05:11:16.107Z,46.57
2019-04-01T05:13:44.496Z,48.95
2019-04-01T05:16:12.896Z,48.67
2019-04-01T05:18:41.288Z,47.53
2019-04-01T05:21:09.922Z,52.17
2019-04-01T05:23:39.499Z,48.87
2019-04-01T05:26:09.430Z,46.47
2019-04-01T05:28:40.255Z,47.60
2019-04-01T05:31:14.370Z,48.83
2019-04-01T05:33:55.341Z,50.90
2019-04-01T05:36:15.249Z,48.43
2019-04-01T05:38:43.729Z,45.50
2019-04-01T05:41:12.638Z,45.60
2019-04-01T05:43:41.877Z,46.43
2019-04-01T05:46:10.329Z,45.10
2019-04-01T05:48:38.709Z,46.80
2019-04-01T05:51:07.097Z,47.30
2019-04-01T05:53:36.492Z,41.27
2019-04-01T05:56:05.035Z,43.70
2019-04-01T05:58:33.641Z,46.67
2019-04-01T06:01:15.229Z,46.87
2019-04-01T06:03:43.701Z,43.70
2019-04-01T06:06:12.193Z,44.97
2019-04-01T06:08:40.654Z,43.07
2019-04-01T06:11:09.519Z,42.83
2019-04-01T06:13:37.903Z,46.07
2019-04-01T06:16:06.318Z,35.87
2019-04-01T06:18:34.708Z,43.60
2019-04-01T06:21:03.175Z,37.73
2019-04-01T06:23:31.570Z,38.43
2019-04-01T06:25:59.965Z,35.77
2019-04-01T06:28:28.510Z,35.60
2019-04-01T06:30:56.903Z,35.57
2019-04-01T06:33:25.290Z,37.43
2019-04-01T06:35:53.751Z,37.87
2019-04-01T06:38:22.204Z,35.13
2019-04-01T06:40:50.659Z,32.17
2019-04-01T06:43:19.113Z,34.27
2019-04-01T06:45:47.499Z,34.50
2019-04-01T06:48:15.887Z,31.73
2019-04-01T06:50:44.488Z,35.00
2019-04-01T06:53:12.878Z,33.23
2019-04-01T06:55:41.343Z,33.53
2019-04-01T06:58:11.911Z,33.13
2019-04-01T07:00:39.832Z,31.63
2019-04-01T07:03:08.284Z,35.20
2019-04-01T07:05:37.044Z,33.17
2019-04-01T07:08:05.506Z,33.57
2019-04-01T07:10:34.459Z,32.03
2019-04-01T07:13:02.906Z,32.13
2019-04-01T07:15:31.386Z,35.47
2019-04-01T07:17:59.840Z,31.80
2019-04-01T07:20:28.306Z,32.63
2019-04-01T07:22:56.697Z,35.07
2019-04-01T07:25:25.362Z,37.00
2019-04-01T07:27:53.833Z,34.60
2019-04-01T07:30:22.368Z,31.23
2019-04-01T07:32:50.835Z,37.30
2019-04-01T07:35:19.288Z,34.03
2019-04-01T07:37:47.836Z,34.67
2019-04-01T07:40:16.302Z,32.30
2019-04-01T07:42:44.688Z,32.80
2019-04-01T07:45:13.207Z,29.47
2019-04-01T07:47:41.596Z,35.57
2019-04-01T07:50:12.297Z,33.40
2019-04-01T07:52:40.777Z,35.53
2019-04-01T07:55:09.252Z,32.40
2019-04-01T07:57:37.707Z,37.40
2019-04-01T08:00:07.028Z,32.60
2019-04-01T08:02:35.559Z,33.10
2019-04-01T08:05:04.510Z,31.30
2019-04-01T08:07:32.872Z,34.37
2019-04-01T08:10:01.266Z,34.97
2019-04-01T08:12:29.724Z,30.93
2019-04-01T08:14:58.111Z,37.10
2019-04-01T08:17:26.567Z,33.03
2019-04-01T08:19:55.026Z,30.97
2019-04-01T08:22:23.419Z,32.23
2019-04-01T08:24:51.816Z,32.97
2019-04-01T08:27:20.261Z,33.93
2019-04-01T08:29:48.650Z,34.55
2019-04-01T08:32:17.110Z,33.27
2019-04-01T08:34:45.880Z,36.40
2019-04-01T08:37:14.295Z,29.33
2019-04-01T08:39:42.773Z,31.87
2019-04-01T08:42:11.161Z,36.20
2019-04-01T08:44:39.551Z,31.87
2019-04-01T08:47:07.946Z,31.50
2019-04-01T08:49:36.410Z,36.97
2019-04-01T08:52:05.039Z,31.43
2019-04-01T08:54:33.497Z,31.73
2019-04-01T08:57:01.984Z,33.17
2019-04-01T08:59:30.541Z,34.80
2019-04-01T09:01:58.935Z,34.33
2019-04-01T09:04:27.491Z,34.67
2019-04-01T09:06:55.887Z,32.37
2019-04-01T09:09:25.052Z,33.17
2019-04-01T09:11:55.083Z,33.07
2019-04-01T09:14:23.886Z,30.60
2019-04-01T09:16:52.522Z,34.57
2019-04-01T09:19:20.952Z,31.87
2019-04-01T09:21:49.337Z,34.37
2019-04-01T09:24:17.723Z,32.15
2019-04-01T09:26:46.135Z,32.53
2019-04-01T09:29:14.609Z,31.57
2019-04-01T09:31:43.014Z,38.07
2019-04-01T09:34:11.480Z,33.27
2019-04-01T09:36:39.861Z,32.47
2019-04-01T09:39:08.335Z,34.63
2019-04-01T09:41:36.732Z,32.67
2019-04-01T09:44:05.391Z,30.63
2019-04-01T09:46:33.890Z,33.57
2019-04-01T09:49:02.286Z,32.03
2019-04-01T09:51:30.730Z,33.13
2019-04-01T09:53:59.161Z,31.87
2019-04-01T09:56:27.552Z,32.97
2019-04-01T09:58:55.946Z,33.90
2019-04-01T10:01:24.355Z,36.00
2019-04-01T10:03:52.771Z,35.33
2019-04-01T10:06:21.164Z,29.93
2019-04-01T10:08:49.560Z,35.83
2019-04-01T10:11:17.988Z,33.57
2019-04-01T10:13:46.397Z,35.60
2019-04-01T10:16:14.796Z,35.27
2019-04-01T10:18:43.222Z,32.90
2019-04-01T10:21:11.699Z,34.27
2019-04-01T10:23:40.148Z,37.57
2019-04-01T10:26:08.552Z,34.67
2019-04-01T10:28:36.945Z,34.13
2019-04-01T10:31:05.484Z,37.37
2019-04-01T10:33:33.881Z,37.30
2019-04-01T10:36:02.287Z,37.07
2019-04-01T10:38:30.760Z,38.20
2019-04-01T10:40:59.234Z,34.90
2019-04-01T10:43:27.626Z,36.50
2019-04-01T10:45:56.035Z,39.83
2019-04-01T10:48:24.493Z,36.23
2019-04-01T10:50:53.038Z,34.33
2019-04-01T10:53:21.445Z,35.93
2019-04-01T10:55:49.907Z,35.30
2019-04-01T10:58:18.277Z,36.67
2019-04-01T11:00:46.941Z,37.27
2019-04-01T11:03:15.379Z,34.33
2019-04-01T11:05:43.739Z,36.07
2019-04-01T11:08:12.249Z,41.37
2019-04-01T11:10:40.711Z,31.83
2019-04-01T11:13:09.097Z,34.03
2019-04-01T11:15:37.491Z,35.97
2019-04-01T11:18:05.893Z,35.57
2019-04-01T11:20:34.292Z,36.80
2019-04-01T11:23:04.116Z,31.97
2019-04-01T11:25:32.784Z,34.37
2019-04-01T11:28:01.193Z,36.40
2019-04-01T11:30:29.589Z,37.50
2019-04-01T11:32:58.086Z,39.33
2019-04-01T11:35:26.539Z,35.40
2019-04-01T11:37:54.986Z,34.63
2019-04-01T11:40:23.334Z,36.00
2019-04-01T11:42:52.938Z,36.40
2019-04-01T11:45:22.616Z,34.23
2019-04-01T11:47:51.361Z,33.05
2019-04-01T11:50:19.800Z,36.33
2019-04-01T11:52:48.144Z,35.03
2019-04-01T11:55:16.554Z,33.17
2019-04-01T11:57:45.022Z,33.07
2019-04-01T12:00:15.395Z,34.63
2019-04-01T12:02:43.850Z,35.70
2019-04-01T12:05:12.325Z,34.43
2019-04-01T12:07:40.730Z,33.50
2019-04-01T12:10:09.566Z,35.03
2019-04-01T12:12:37.958Z,33.13
2019-04-01T12:15:06.802Z,37.17
2019-04-01T12:17:35.252Z,40.07
2019-04-01T12:20:04.186Z,40.07
2019-04-01T12:22:32.586Z,39.80
2019-04-01T12:25:00.979Z,38.17
2019-04-01T12:27:29.375Z,37.90
2019-04-01T12:29:57.767Z,38.70
2019-04-01T12:32:26.155Z,39.45
2019-04-01T12:34:54.557Z,39.90
2019-04-01T12:37:22.947Z,38.07
2019-04-01T12:39:51.341Z,38.30
2019-04-01T12:42:19.818Z,36.13
2019-04-01T12:44:48.232Z,34.97
2019-04-01T12:47:16.992Z,38.17
2019-04-01T12:49:45.422Z,36.77
2019-04-01T12:52:13.882Z,38.57
2019-04-01T12:54:42.276Z,36.23
2019-04-01T12:57:10.739Z,35.80
2019-04-01T12:59:39.134Z,37.10
2019-04-01T13:02:07.539Z,36.77
2019-04-01T13:04:36.272Z,33.60
2019-04-01T13:07:05.197Z,41.47
2019-04-01T13:09:33.878Z,36.83
2019-04-01T13:12:02.348Z,37.00
2019-04-01T13:14:30.730Z,38.40
2019-04-01T13:16:59.121Z,36.10
2019-04-01T13:19:27.537Z,39.40
2019-04-01T13:21:55.937Z,36.13
2019-04-01T13:24:24.442Z,35.63
2019-04-01T13:26:52.841Z,41.90
2019-04-01T13:29:21.306Z,40.07
2019-04-01T13:31:51.165Z,41.40
2019-04-01T13:34:20.232Z,40.57
2019-04-01T13:36:49.898Z,36.07
2019-04-01T13:39:18.510Z,36.63
2019-04-01T13:41:46.922Z,38.17
2019-04-01T13:44:15.394Z,38.13
2019-04-01T13:46:43.857Z,37.10
2019-04-01T13:49:12.241Z,35.33
2019-04-01T13:51:43.634Z,37.80
2019-04-01T13:54:11.592Z,38.43
2019-04-01T13:56:40.452Z,38.28
2019-04-01T13:59:09.844Z,35.43
2019-04-01T14:01:38.993Z,39.33
2019-04-01T14:04:07.378Z,34.57
2019-04-01T14:06:35.773Z,35.47
2019-04-01T14:09:05.910Z,37.00
2019-04-01T14:11:34.300Z,32.57
2019-04-01T14:14:02.767Z,40.87
2019-04-01T14:16:31.161Z,39.83
2019-04-01T14:18:59.557Z,38.63
2019-04-01T14:21:28.015Z,36.37
2019-04-01T14:23:56.409Z,33.47
2019-04-01T14:26:24.807Z,37.47
2019-04-01T14:28:53.263Z,31.80
2019-04-01T14:31:21.663Z,33.63
2019-04-01T14:33:50.115Z,33.40
2019-04-01T14:36:18.593Z,33.73
2019-04-01T14:38:46.980Z,35.60
2019-04-01T14:41:15.396Z,33.23
2019-04-01T14:43:43.766Z,35.07
2019-04-01T14:46:12.182Z,33.67
2019-04-01T14:48:40.675Z,32.07
2019-04-01T14:51:09.066Z,33.63
2019-04-01T14:53:37.930Z,31.67
2019-04-01T14:56:06.548Z,33.40
2019-04-01T14:58:34.937Z,31.70
2019-04-01T15:01:03.515Z,31.03
2019-04-01T15:03:31.909Z,33.07
2019-04-01T15:06:00.323Z,31.33
2019-04-01T15:08:28.718Z,29.50
2019-04-01T15:10:57.125Z,32.90
2019-04-01T15:13:25.523Z,34.67
2019-04-01T15:15:53.932Z,32.93
2019-04-01T15:18:22.316Z,31.53
2019-04-01T15:20:50.712Z,31.20
2019-04-01T15:23:19.221Z,30.70
2019-04-01T15:25:47.624Z,33.10
2019-04-01T15:28:16.023Z,31.90
2019-04-01T15:30:44.492Z,32.67
2019-04-01T15:33:12.944Z,30.37
2019-04-01T15:35:41.347Z,30.30
2019-04-01T15:38:09.772Z,29.40
2019-04-01T15:40:38.162Z,33.33
2019-04-01T15:43:06.559Z,32.30
2019-04-01T15:45:35.455Z,30.13
2019-04-01T15:48:04.123Z,29.17
2019-04-01T15:50:32.593Z,28.20
2019-04-01T15:53:00.984Z,29.57
2019-04-01T15:55:29.372Z,32.97
2019-04-01T15:57:57.764Z,30.10
2019-04-01T16:00:26.169Z,32.70
2019-04-01T16:02:54.564Z,30.90
2019-04-01T16:05:22.954Z,33.07
2019-04-01T16:07:51.403Z,31.60
2019-04-01T16:10:20.898Z,34.17
2019-04-01T16:12:49.465Z,28.97
2019-04-01T16:15:17.924Z,32.17
2019-04-01T16:17:46.327Z,32.93
2019-04-01T16:20:15.013Z,33.30
2019-04-01T16:22:43.833Z,30.63
2019-04-01T16:25:13.397Z,28.67
2019-04-01T16:27:43.144Z,30.60
2019-04-01T16:30:11.828Z,35.67
2019-04-01T16:32:40.233Z,34.87
2019-04-01T16:35:09.056Z,30.33
2019-04-01T16:37:37.497Z,30.23
2019-04-01T16:40:06.929Z,31.63
2019-04-01T16:42:35.328Z,31.57
2019-04-01T16:45:05.911Z,31.80
2019-04-01T16:47:34.303Z,29.57
2019-04-01T16:50:03.033Z,31.43
2019-04-01T16:52:31.395Z,29.13
2019-04-01T16:55:01.995Z,28.57
2019-04-01T16:57:30.470Z,33.57
2019-04-01T16:59:58.891Z,29.80
2019-04-01T17:02:27.306Z,28.63
2019-04-01T17:05:00.294Z,30.27
2019-04-01T17:07:28.843Z,28.60
2019-04-01T17:09:58.324Z,29.90
2019-04-01T17:12:28.078Z,29.90
2019-04-01T17:14:56.617Z,30.53
2019-04-01T17:17:25.007Z,28.80
2019-04-01T17:19:53.398Z,30.33
2019-04-01T17:22:21.811Z,28.87
2019-04-01T17:24:50.180Z,28.00
2019-04-01T17:27:18.579Z,27.20
2019-04-01T17:29:47.317Z,29.23
2019-04-01T17:32:15.706Z,27.60
2019-04-01T17:34:44.979Z,32.20
2019-04-01T17:37:13.646Z,29.83
2019-04-01T17:39:48.061Z,27.63
2019-04-01T17:42:17.188Z,28.73
2019-04-01T17:44:45.832Z,28.27
2019-04-01T17:47:14.619Z,30.33
2019-04-01T17:49:43.009Z,29.13
2019-04-01T17:52:11.398Z,31.13
2019-04-01T17:54:40.163Z,29.30
2019-04-01T17:57:08.543Z,31.13
2019-04-01T17:59:36.941Z,31.07
2019-04-01T18:02:08.369Z,30.23
2019-04-01T18:04:36.765Z,28.60
2019-04-01T18:07:05.159Z,30.90
2019-04-01T18:09:33.550Z,27.60
2019-04-01T18:12:01.953Z,28.63
2019-04-01T18:14:30.344Z,28.63
2019-04-01T18:16:58.734Z,29.80
2019-04-01T18:19:27.130Z,27.30
2019-04-01T18:21:55.523Z,25.67
2019-04-01T18:24:24.023Z,30.37
2019-04-01T18:26:52.431Z,27.57
2019-04-01T18:29:20.815Z,26.30
2019-04-01T18:31:49.229Z,27.30
2019-04-01T18:34:17.628Z,28.43
2019-04-01T18:36:46.049Z,24.80
2019-04-01T18:39:15.302Z,25.80
2019-04-01T18:41:43.990Z,26.60
2019-04-01T18:44:12.391Z,22.83
2019-04-01T18:46:40.783Z,24.87
2019-04-01T18:49:09.193Z,28.63
2019-04-01T18:51:37.590Z,22.93
2019-04-01T18:54:05.991Z,29.97
2019-04-01T18:56:34.404Z,26.27
2019-04-01T18:59:02.775Z,27.50
2019-04-01T19:01:31.249Z,28.67
2019-04-01T19:03:59.621Z,24.73
2019-04-01T19:06:28.027Z,25.37
2019-04-01T19:09:08.632Z,25.40
2019-04-01T19:11:26.563Z,26.27
2019-04-01T19:13:55.045Z,28.77
2019-04-01T19:16:23.425Z,25.20
2019-04-01T19:18:51.833Z,28.07
2019-04-01T19:21:20.222Z,23.73
2019-04-01T19:23:48.623Z,22.80
2019-04-01T19:26:17.022Z,26.63
2019-04-01T19:28:47.024Z,26.90
2019-04-01T19:31:15.579Z,27.20
2019-04-01T19:33:43.986Z,26.83
2019-04-01T19:36:12.479Z,29.73
2019-04-01T19:38:40.977Z,27.90
2019-04-01T19:41:09.372Z,26.60
2019-04-01T19:43:37.767Z,25.03
2019-04-01T19:46:06.163Z,23.47
2019-04-01T19:48:34.547Z,26.53
2019-04-01T19:51:02.948Z,23.53
2019-04-01T19:53:31.335Z,24.10
2019-04-01T19:55:59.732Z,27.77
2019-04-01T19:58:28.126Z,24.80
2019-04-01T20:00:56.662Z,26.03
2019-04-01T20:03:25.540Z,22.80
2019-04-01T20:05:54.327Z,26.67
2019-04-01T20:08:22.712Z,24.40
2019-04-01T20:10:51.335Z,25.23
2019-04-01T20:13:19.713Z,24.17
2019-04-01T20:15:48.115Z,23.87
2019-04-01T20:18:16.512Z,25.63
2019-04-01T20:20:44.910Z,25.23
2019-04-01T20:23:13.306Z,25.70
2019-04-01T20:25:41.699Z,21.63
2019-04-01T20:28:10.090Z,24.53
2019-04-01T20:30:38.549Z,25.33
2019-04-01T20:33:17.039Z,26.00
2019-04-01T20:35:37.075Z,25.03
2019-04-01T20:38:05.473Z,26.23
2019-04-01T20:40:33.863Z,23.57
2019-04-01T20:43:02.251Z,19.87
2019-04-01T20:45:31.118Z,24.10
2019-04-01T20:47:59.511Z,23.73
2019-04-01T20:50:28.142Z,23.13
2019-04-01T20:52:56.770Z,22.43
2019-04-01T20:55:25.170Z,23.17
2019-04-01T20:57:53.565Z,22.80
2019-04-01T21:00:22.094Z,24.73
2019-04-01T21:02:51.339Z,23.67
2019-04-01T21:05:19.736Z,23.87
2019-04-01T21:07:48.129Z,20.43
2019-04-01T21:10:17.363Z,24.43
2019-04-01T21:12:45.758Z,24.20
2019-04-01T21:15:14.684Z,21.33
2019-04-01T21:17:43.080Z,24.77
2019-04-01T21:20:12.230Z,24.37
2019-04-01T21:22:41.435Z,21.87
2019-04-01T21:25:09.902Z,24.03
2019-04-01T21:27:38.290Z,24.47
2019-04-01T21:30:09.732Z,23.23
2019-04-01T21:32:38.195Z,23.43
2019-04-01T21:35:06.820Z,24.13
2019-04-01T21:37:35.658Z,19.73
2019-04-01T21:40:07.014Z,20.47
2019-04-01T21:42:35.409Z,26.73
2019-04-01T21:45:06.380Z,21.80
2019-04-01T21:47:34.771Z,20.93
2019-04-01T21:50:03.338Z,23.87
2019-04-01T21:52:35.879Z,22.93
2019-04-01T21:55:07.849Z,21.07
2019-04-01T21:57:35.521Z,23.30
2019-04-01T22:00:05.694Z,23.77
2019-04-01T22:02:36.183Z,25.60
2019-04-01T22:05:05.428Z,22.77
2019-04-01T22:07:33.815Z,22.83
2019-04-01T22:10:02.400Z,21.00
2019-04-01T22:12:31.578Z,22.73
2019-04-01T22:14:59.977Z,21.87
2019-04-01T22:17:28.362Z,23.50
2019-04-01T22:19:56.751Z,25.00
2019-04-01T22:22:25.140Z,22.87
2019-04-01T22:24:53.582Z,23.43
2019-04-01T22:27:22.006Z,23.60
2019-04-01T22:29:50.388Z,22.50
2019-04-01T22:32:18.792Z,19.77
2019-04-01T22:34:47.654Z,22.77
2019-04-01T22:37:26.646Z,22.07
2019-04-01T22:39:46.154Z,23.53
2019-04-01T22:42:14.544Z,22.93
2019-04-01T22:44:42.947Z,20.03
2019-04-01T22:47:11.337Z,22.90
2019-04-01T22:49:41.144Z,21.17
2019-04-01T22:52:10.611Z,23.03
2019-04-01T22:54:39.081Z,19.60
2019-04-01T22:57:07.472Z,21.67
2019-04-01T22:59:35.865Z,21.97
2019-04-01T23:02:04.416Z,19.80
2019-04-01T23:04:32.803Z,22.13
2019-04-01T23:07:01.197Z,23.33
2019-04-01T23:09:29.577Z,19.13
2019-04-01T23:11:57.971Z,22.27
2019-04-01T23:14:26.356Z,20.90
2019-04-01T23:16:54.750Z,20.97
2019-04-01T23:19:23.137Z,26.20
2019-04-01T23:21:51.527Z,22.47
2019-04-01T23:24:19.916Z,23.73
2019-04-01T23:26:48.304Z,17.43
2019-04-01T23:29:16.695Z,21.60
2019-04-01T23:31:45.089Z,20.20
2019-04-01T23:34:14.113Z,21.83
2019-04-01T23:36:42.632Z,18.40
2019-04-01T23:39:11.022Z,26.87
2019-04-01T23:41:39.410Z,22.93
2019-04-01T23:44:07.800Z,20.20
2019-04-01T23:46:36.191Z,19.20
2019-04-01T23:49:04.712Z,20.57
2019-04-01T23:51:33.101Z,23.43
2019-04-01T23:54:02.283Z,20.83
2019-04-01T23:56:31.056Z,19.80
2019-04-01T23:58:59.447Z,19.50
